createdAt,value
2022-11-09T00:05:28.499Z,11.28
2022-11-09T00:15:29.779Z,11.27
2022-11-09T00:25:31.158Z,11.22
2022-11-09T00:35:32.555Z,11.26
2022-11-09T00:45:33.802Z,11.25
2022-11-09T00:55:35.327Z,11.25
2022-11-09T01:05:39.587Z,11.20
2022-11-09T01:15:41.609Z,11.25
2022-11-09T01:25:44.135Z,11.29
2022-11-09T01:35:45.347Z,11.34
2022-11-09T01:45:46.764Z,11.32
2022-11-09T01:55:48.133Z,11.29
2022-11-09T02:05:49.473Z,11.31
2022-11-09T02:15:50.989Z,11.29
2022-11-09T02:25:52.389Z,11.29
2022-11-09T02:35:53.769Z,11.29
2022-11-09T02:45:55.140Z,11.29
2022-11-09T02:55:56.502Z,11.23
2022-11-09T03:05:57.849Z,11.22
2022-11-09T03:15:59.209Z,11.24
2022-11-09T03:26:00.686Z,11.23
2022-11-09T03:36:02.014Z,11.21
2022-11-09T03:46:03.347Z,11.22
2022-11-09T03:56:04.678Z,11.23
2022-11-09T04:06:06.040Z,11.27
2022-11-09T04:16:07.441Z,11.27
2022-11-09T04:26:08.773Z,11.26
2022-11-09T04:36:10.159Z,11.27
2022-11-09T04:46:11.549Z,11.26
2022-11-09T04:56:12.901Z,11.26
2022-11-09T05:06:32.700Z,11.29
2022-11-09T05:16:34.164Z,11.37
2022-11-09T05:26:35.538Z,11.39
2022-11-09T05:36:36.888Z,11.42
2022-11-09T05:46:38.322Z,11.46
2022-11-09T05:56:39.692Z,11.45
2022-11-09T06:06:41.150Z,11.44
2022-11-09T06:16:42.519Z,11.48
2022-11-09T06:26:43.876Z,11.48
2022-11-09T06:36:45.196Z,11.45
2022-11-09T06:46:46.544Z,11.45
2022-11-09T06:56:48.013Z,11.34
2022-11-09T07:06:49.589Z,11.29
2022-11-09T07:16:51.006Z,11.33
2022-11-09T07:26:52.440Z,11.29
2022-11-09T07:36:54.672Z,11.34
2022-11-09T07:46:56.030Z,11.38
2022-11-09T07:56:57.373Z,11.51
2022-11-09T08:06:58.770Z,11.61
2022-11-09T08:17:00.228Z,11.80
2022-11-09T08:27:01.560Z,12.09
2022-11-09T08:37:02.902Z,12.21
2022-11-09T08:47:04.265Z,12.46
2022-11-09T08:57:05.757Z,12.66
2022-11-09T09:07:07.193Z,13.02
2022-11-09T09:17:08.669Z,13.14
2022-11-09T09:27:10.057Z,13.20
2022-11-09T09:37:11.470Z,13.42
2022-11-09T09:47:12.687Z,13.54
2022-11-09T09:57:14.077Z,13.53
2022-11-09T10:07:15.505Z,13.55
2022-11-09T10:17:16.910Z,13.67
2022-11-09T10:27:18.255Z,13.83
2022-11-09T10:37:19.508Z,14.13
2022-11-09T10:47:22.698Z,14.34
2022-11-09T10:57:24.143Z,14.56
2022-11-09T11:07:25.690Z,14.51
2022-11-09T11:17:27.036Z,14.88
2022-11-09T11:27:28.484Z,14.85
2022-11-09T11:37:29.832Z,15.07
2022-11-09T11:47:31.221Z,15.02
2022-11-09T11:57:32.614Z,15.02
2022-11-09T12:07:34.055Z,15.11
2022-11-09T12:17:38.057Z,15.16
2022-11-09T12:27:39.381Z,15.12
2022-11-09T12:37:40.667Z,15.30
2022-11-09T12:47:41.957Z,15.17
2022-11-09T12:57:43.379Z,14.88
2022-11-09T13:07:44.687Z,14.65
2022-11-09T13:17:46.021Z,14.70
2022-11-09T13:27:47.369Z,14.65
2022-11-09T13:37:49.454Z,14.55
2022-11-09T13:47:50.864Z,14.52
2022-11-09T13:57:52.095Z,14.47
2022-11-09T14:07:53.599Z,14.44
2022-11-09T14:17:54.991Z,14.28
2022-11-09T14:27:59.278Z,14.09
2022-11-09T14:38:00.595Z,14.03
2022-11-09T14:48:02.120Z,13.89
2022-11-09T14:58:03.512Z,13.85
2022-11-09T15:08:04.754Z,13.74
2022-11-09T15:18:06.159Z,13.68
2022-11-09T15:28:07.520Z,13.53
2022-11-09T15:38:08.890Z,13.43
2022-11-09T15:48:10.253Z,13.32
2022-11-09T15:58:11.748Z,13.20
2022-11-09T16:08:13.253Z,13.15
2022-11-09T16:18:17.411Z,13.06
2022-11-09T16:28:20.812Z,13.06
2022-11-09T16:38:22.756Z,13.02
2022-11-09T16:48:24.616Z,13.07
2022-11-09T16:58:26.026Z,13.04
2022-11-09T17:08:27.357Z,13.12
2022-11-09T17:18:28.683Z,13.15
2022-11-09T17:28:30.059Z,13.15
2022-11-09T17:38:31.465Z,13.04
2022-11-09T17:48:32.905Z,13.12
2022-11-09T17:58:34.295Z,13.13
2022-11-09T18:08:35.558Z,12.41
2022-11-09T18:18:37.012Z,12.28
2022-11-09T18:28:39.452Z,12.47
2022-11-09T18:38:40.786Z,12.65
2022-11-09T18:48:42.280Z,12.60
2022-11-09T18:58:43.693Z,12.50
2022-11-09T19:09:03.915Z,12.44
2022-11-09T19:19:05.334Z,12.40
2022-11-09T19:29:07.718Z,12.36
2022-11-09T19:39:09.138Z,12.37
2022-11-09T19:49:10.440Z,12.28
2022-11-09T19:59:11.805Z,12.22
2022-11-09T20:09:13.166Z,12.18
2022-11-09T20:19:14.604Z,12.10
2022-11-09T20:29:15.952Z,11.99
2022-11-09T20:39:17.507Z,11.84
2022-11-09T20:49:19.096Z,11.63
2022-11-09T20:59:20.485Z,11.48
2022-11-09T21:09:21.737Z,11.36
2022-11-09T21:19:22.990Z,11.20
2022-11-09T21:29:43.404Z,11.17
2022-11-09T21:39:44.645Z,11.05
2022-11-09T21:49:46.036Z,10.98
2022-11-09T21:59:47.388Z,10.85
2022-11-09T22:10:09.513Z,10.86
2022-11-09T22:20:30.330Z,10.97
2022-11-09T22:30:31.683Z,11.03
2022-11-09T22:40:33.026Z,11.13
2022-11-09T22:50:34.859Z,11.24
2022-11-09T23:00:36.233Z,11.24
2022-11-09T23:10:37.566Z,11.27
2022-11-09T23:20:38.896Z,11.29
2022-11-09T23:30:40.214Z,11.33
2022-11-09T23:40:41.575Z,11.28
2022-11-09T23:50:43.151Z,11.22
